Lesley Pg — MXUG5 — position and weather

sailwx.info

Track history (hours):
 
Tides and Currents Weather Stations Pressure Air Temp Water Temp Dewpoint Dewpoint Depression Visibility Wind Speed Wind Dir Waves Ship Positions

Lesley Pg

Last reported at 2017-Jun-21 20:37 UTC. Time now 2017-Jun-26 00:41 UTC.
Position N 15°29' W 061°34'.

Length 102 m; draft 5.6 m.

Type: Tanker. MMSI: 234910000.

Date/timePositionNaut miles runAvg speedWind from/ knotsBaromVisibWave heightAir tempDewpointWater temp
2017-Jun-21 20:37N 15°29' W 061°34'210.1
2017-Jun-21 20:28N 15°30' W 061°35'4 9.7
2017-Jun-21 20:00N 15°34' W 061°37'5 9.3
2017-Jun-21 19:27N 15°38' W 061°41'7 9.0
2017-Jun-21 18:37N 15°44' W 061°46'2 9.4
2017-Jun-21 18:24N 15°45' W 061°47'26 9.9
2017-Jun-21 15:48N 16°08' W 061°60'411.6
2017-Jun-21 15:29N 16°11' W 061°60'611.6
2017-Jun-21 15:00N 16°17' W 061°59'611.6
2017-Jun-21 14:30N 16°23' W 061°59'1111.4
2017-Jun-21 13:30N 16°34' W 061°59'611.1
2017-Jun-21 13:00N 16°40' W 061°59'510.9
2017-Jun-21 12:30N 16°45' W 061°58'510.9
2017-Jun-21 12:00N 16°51' W 061°58'611.2
2017-Jun-21 11:30N 16°56' W 061°58'611.3
2017-Jun-21 11:00N 17°02' W 061°58'611.2
2017-Jun-21 10:30N 17°07' W 061°58'5 9.5
2017-Jun-21 10:00N 17°10' W 061°53'1 1.4
2017-Jun-21 09:29N 17°10' W 061°53'0 0.0
2017-Jun-21 08:59N 17°10' W 061°53'0 0.0
2017-Jun-21 08:29N 17°10' W 061°53'0 0.0
2017-Jun-21 07:59N 17°10' W 061°53'0 0.0
2017-Jun-21 07:29N 17°10' W 061°53'0 0.0
2017-Jun-21 06:59N 17°10' W 061°53'0 0.0
2017-Jun-21 06:29N 17°10' W 061°53'0 0.0
2017-Jun-21 05:59N 17°10' W 061°53'0 0.0
2017-Jun-21 05:29N 17°10' W 061°53'0 0.5
2017-Jun-21 05:00N 17°09' W 061°52'1 0.9
2017-Jun-21 04:29N 17°09' W 061°52'0 0.0
2017-Jun-21 03:59N 17°09' W 061°52'0 0.0
2017-Jun-21 03:29N 17°09' W 061°52'0 0.0
2017-Jun-21 02:59N 17°09' W 061°52'0 0.0
2017-Jun-21 02:29N 17°09' W 061°52'0 0.0
2017-Jun-21 01:59N 17°09' W 061°52'0 0.0
2017-Jun-21 01:29N 17°09' W 061°52'0 0.0
2017-Jun-21 00:59N 17°09' W 061°52'0 0.0
2017-Jun-21 00:29N 17°09' W 061°52'0 0.0
2017-Jun-20 23:59N 17°09' W 061°52'0 0.0
2017-Jun-20 23:29N 17°09' W 061°52'0 0.0
2017-Jun-20 22:59N 17°09' W 061°52'0 0.0
2017-Jun-20 22:29N 17°09' W 061°52'0 0.0
2017-Jun-20 21:59N 17°09' W 061°52'0 0.0
2017-Jun-20 21:29N 17°09' W 061°52'0 0.0
2017-Jun-20 20:56N 17°09' W 061°52'0 0.0
2017-Jun-20 20:29N 17°09' W 061°52'0 0.0
2017-Jun-20 19:56N 17°09' W 061°52'0 0.0
2017-Jun-20 19:29N 17°09' W 061°52'0 0.0
2017-Jun-20 18:59N 17°09' W 061°52'0 0.0
2017-Jun-20 18:28N 17°09' W 061°52'0 0.0
2017-Jun-20 17:58N 17°09' W 061°52'0 0.0
2017-Jun-20 17:28N 17°09' W 061°52'0 0.0
2017-Jun-20 16:58N 17°09' W 061°52'0 0.0
2017-Jun-20 16:28N 17°09' W 061°52'0 0.0
2017-Jun-20 15:58N 17°09' W 061°52'0 0.0
2017-Jun-20 15:28N 17°09' W 061°52'0 0.0
2017-Jun-20 14:58N 17°09' W 061°52'0 0.0
2017-Jun-20 13:58N 17°09' W 061°52'0 0.0
2017-Jun-20 13:28N 17°09' W 061°52'0 0.0
2017-Jun-20 12:58N 17°09' W 061°52'0 0.0
2017-Jun-20 12:28N 17°09' W 061°52'0 0.0
2017-Jun-20 11:58N 17°09' W 061°52'0 0.0
2017-Jun-20 11:28N 17°09' W 061°52'0 0.0
2017-Jun-20 10:58N 17°09' W 061°52'0 0.0
2017-Jun-20 10:28N 17°09' W 061°52'0 0.0
2017-Jun-20 09:58N 17°09' W 061°52'0 0.0
2017-Jun-20 09:28N 17°09' W 061°52'0 0.0
2017-Jun-20 08:58N 17°09' W 061°52'0 0.0
2017-Jun-20 08:28N 17°09' W 061°52'0 0.0
2017-Jun-20 07:58N 17°09' W 061°52'0 0.0
2017-Jun-20 07:28N 17°09' W 061°52'0 0.0
2017-Jun-20 06:58N 17°09' W 061°52'0 0.0
2017-Jun-20 06:28N 17°09' W 061°52'0 0.0
2017-Jun-20 05:58N 17°09' W 061°52'0 0.0
2017-Jun-20 05:28N 17°09' W 061°52'0 0.0
2017-Jun-20 04:58N 17°09' W 061°52'0 0.0
2017-Jun-20 04:28N 17°09' W 061°52'0 0.0
2017-Jun-20 03:58N 17°09' W 061°52'0 0.0
2017-Jun-20 03:28N 17°09' W 061°52'0 0.0
2017-Jun-20 02:58N 17°09' W 061°52'0 0.0
2017-Jun-20 02:28N 17°09' W 061°52'0 0.0
2017-Jun-20 01:58N 17°09' W 061°52'0 0.0
2017-Jun-20 01:28N 17°09' W 061°52'0 0.0
2017-Jun-20 00:58N 17°09' W 061°52'0 0.0
2017-Jun-20 00:28N 17°09' W 061°52'0 0.0
2017-Jun-19 23:58N 17°09' W 061°52'0 0.0
2017-Jun-19 23:28N 17°09' W 061°52'0 0.0
2017-Jun-19 22:58N 17°09' W 061°52'0 0.0
2017-Jun-19 22:28N 17°09' W 061°52'0 0.0
2017-Jun-19 21:58N 17°09' W 061°52'0 0.0
2017-Jun-19 21:28N 17°09' W 061°52'0 0.0
2017-Jun-19 20:58N 17°09' W 061°52'0 0.0
2017-Jun-19 20:28N 17°09' W 061°52'0 0.0
2017-Jun-19 19:58N 17°09' W 061°52'0 0.0
2017-Jun-19 19:28N 17°09' W 061°52'0 0.0
2017-Jun-19 18:58N 17°09' W 061°52'0 0.0
2017-Jun-19 18:30N 17°09' W 061°52'0 0.0
2017-Jun-19 18:00N 17°09' W 061°52'0 0.0
2017-Jun-19 17:30N 17°09' W 061°52'0 0.0
2017-Jun-19 17:00N 17°09' W 061°52'0 0.0
2017-Jun-19 16:30N 17°09' W 061°52'0 0.0
2017-Jun-19 16:00N 17°09' W 061°52'0 0.1
2017-Jun-19 15:30N 17°09' W 061°52'1 1.4
2017-Jun-19 15:00N 17°10' W 061°53'0 0.1
2017-Jun-19 13:59N 17°10' W 061°53'0 0.0
2017-Jun-19 13:29N 17°10' W 061°53'0 0.0
2017-Jun-19 12:59N 17°10' W 061°53'0 0.0
2017-Jun-19 12:29N 17°10' W 061°53'0 0.0
2017-Jun-19 11:59N 17°10' W 061°53'0 0.1
2017-Jun-19 11:29N 17°10' W 061°53'0 0.0
2017-Jun-19 10:59N 17°10' W 061°53'0 0.0
2017-Jun-19 10:29N 17°10' W 061°53'0 0.0
2017-Jun-19 09:59N 17°10' W 061°53'0 0.0
2017-Jun-19 09:29N 17°10' W 061°53'0 0.0
2017-Jun-19 08:59N 17°10' W 061°53'0 0.0
2017-Jun-19 08:29N 17°10' W 061°53'0 0.0
2017-Jun-19 07:59N 17°10' W 061°53'0 0.0
2017-Jun-19 07:29N 17°10' W 061°53'0 0.1
2017-Jun-19 06:59N 17°10' W 061°53'0 0.1
2017-Jun-19 06:29N 17°10' W 061°53'0 0.1
2017-Jun-19 05:59N 17°10' W 061°53'0 0.1
2017-Jun-19 05:29N 17°10' W 061°53'0 0.0
2017-Jun-19 04:59N 17°10' W 061°53'0 0.0
2017-Jun-19 04:29N 17°10' W 061°53'0 0.0
2017-Jun-19 03:59N 17°10' W 061°53'0 0.0
2017-Jun-19 03:29N 17°10' W 061°53'0 0.0
2017-Jun-19 02:59N 17°10' W 061°53'0 0.0
2017-Jun-19 02:29N 17°10' W 061°53'0 0.0
2017-Jun-19 01:59N 17°10' W 061°53'0 0.0
2017-Jun-19 01:29N 17°10' W 061°53'0 0.0
2017-Jun-19 00:58N 17°10' W 061°53'0 0.0
2017-Jun-19 00:28N 17°10' W 061°53'0 0.0
2017-Jun-18 23:58N 17°10' W 061°53'0 0.0
2017-Jun-18 23:28N 17°10' W 061°53'0 0.0
2017-Jun-18 22:58N 17°10' W 061°53'0 0.0
2017-Jun-18 22:28N 17°10' W 061°53'0 0.0
2017-Jun-18 21:58N 17°10' W 061°53'0 0.0
2017-Jun-18 21:28N 17°10' W 061°53'0 0.0
2017-Jun-18 20:58N 17°10' W 061°53'0 0.0
2017-Jun-18 20:28N 17°10' W 061°53'0 0.0
2017-Jun-18 19:58N 17°10' W 061°53'0 0.0
2017-Jun-18 19:28N 17°10' W 061°53'0 0.0
2017-Jun-18 18:58N 17°10' W 061°53'0 0.0
2017-Jun-18 18:28N 17°10' W 061°53'0 0.0
2017-Jun-18 17:58N 17°10' W 061°53'0 0.0
2017-Jun-18 17:28N 17°10' W 061°53'0 0.1
2017-Jun-18 16:58N 17°10' W 061°53'0 0.0
2017-Jun-18 16:28N 17°10' W 061°53'0 0.0
2017-Jun-18 15:58N 17°10' W 061°53'0 0.0
2017-Jun-18 15:28N 17°10' W 061°53'0 0.0
2017-Jun-18 14:58N 17°10' W 061°53'0 0.0
2017-Jun-18 13:58N 17°10' W 061°53'0 0.1
2017-Jun-18 13:28N 17°10' W 061°53'3 5.5
2017-Jun-18 13:00N 17°09' W 061°55'5 9.7
2017-Jun-18 12:30N 17°05' W 061°58'611.5
2017-Jun-18 12:00N 16°59' W 061°58'611.1
2017-Jun-18 11:31N 16°54' W 061°58'611.1
2017-Jun-18 11:01N 16°48' W 061°58'611.0
2017-Jun-18 10:31N 16°43' W 061°58'510.5
2017-Jun-18 10:00N 16°37' W 061°59'510.4
2017-Jun-18 09:30N 16°32' W 061°59'510.5
2017-Jun-18 09:00N 16°27' W 061°59'510.4
2017-Jun-18 08:31N 16°22' W 061°59'510.2
2017-Jun-18 08:01N 16°17' W 061°60'610.0
2017-Jun-18 07:27N 16°11' W 061°60'2810.2
2017-Jun-18 04:43N 15°46' W 061°48'211.1
2017-Jun-18 04:29N 15°44' W 061°46'611.8
2017-Jun-18 04:00N 15°39' W 061°42'611.9
2017-Jun-18 03:30N 15°35' W 061°38'611.8
2017-Jun-18 03:00N 15°30' W 061°34'  
Track history (hours):
 
Tides and Currents Weather Stations Pressure Air Temp Water Temp Dewpoint Dewpoint Depression Visibility Wind Speed Wind Dir Waves Ship Positions

Lesley Pg

Last reported at 2017-Jun-21 20:37 UTC. Time now 2017-Jun-26 00:41 UTC.
Position N 15°29' W 061°34'.

Length 102 m; draft 5.6 m.

Type: Tanker. MMSI: 234910000.

Date/timePositionNaut miles runAvg speedWind from/ knotsBaromVisibWave heightAir tempDewpointWater temp
2017-Jun-21 20:37N 15°29' W 061°34'210.1
2017-Jun-21 20:28N 15°30' W 061°35'4 9.7
2017-Jun-21 20:00N 15°34' W 061°37'5 9.3
2017-Jun-21 19:27N 15°38' W 061°41'7 9.0
2017-Jun-21 18:37N 15°44' W 061°46'2 9.4
2017-Jun-21 18:24N 15°45' W 061°47'26 9.9
2017-Jun-21 15:48N 16°08' W 061°60'411.6
2017-Jun-21 15:29N 16°11' W 061°60'611.6
2017-Jun-21 15:00N 16°17' W 061°59'611.6
2017-Jun-21 14:30N 16°23' W 061°59'1111.4
2017-Jun-21 13:30N 16°34' W 061°59'611.1
2017-Jun-21 13:00N 16°40' W 061°59'510.9
2017-Jun-21 12:30N 16°45' W 061°58'510.9
2017-Jun-21 12:00N 16°51' W 061°58'611.2
2017-Jun-21 11:30N 16°56' W 061°58'611.3
2017-Jun-21 11:00N 17°02' W 061°58'611.2
2017-Jun-21 10:30N 17°07' W 061°58'5 9.5
2017-Jun-21 10:00N 17°10' W 061°53'1 1.4
2017-Jun-21 09:29N 17°10' W 061°53'0 0.0
2017-Jun-21 08:59N 17°10' W 061°53'0 0.0
2017-Jun-21 08:29N 17°10' W 061°53'0 0.0
2017-Jun-21 07:59N 17°10' W 061°53'0 0.0
2017-Jun-21 07:29N 17°10' W 061°53'0 0.0
2017-Jun-21 06:59N 17°10' W 061°53'0 0.0
2017-Jun-21 06:29N 17°10' W 061°53'0 0.0
2017-Jun-21 05:59N 17°10' W 061°53'0 0.0
2017-Jun-21 05:29N 17°10' W 061°53'0 0.5
2017-Jun-21 05:00N 17°09' W 061°52'1 0.9
2017-Jun-21 04:29N 17°09' W 061°52'0 0.0
2017-Jun-21 03:59N 17°09' W 061°52'0 0.0
2017-Jun-21 03:29N 17°09' W 061°52'0 0.0
2017-Jun-21 02:59N 17°09' W 061°52'0 0.0
2017-Jun-21 02:29N 17°09' W 061°52'0 0.0
2017-Jun-21 01:59N 17°09' W 061°52'0 0.0
2017-Jun-21 01:29N 17°09' W 061°52'0 0.0
2017-Jun-21 00:59N 17°09' W 061°52'0 0.0
2017-Jun-21 00:29N 17°09' W 061°52'0 0.0
2017-Jun-20 23:59N 17°09' W 061°52'0 0.0
2017-Jun-20 23:29N 17°09' W 061°52'0 0.0
2017-Jun-20 22:59N 17°09' W 061°52'0 0.0
2017-Jun-20 22:29N 17°09' W 061°52'0 0.0
2017-Jun-20 21:59N 17°09' W 061°52'0 0.0
2017-Jun-20 21:29N 17°09' W 061°52'0 0.0
2017-Jun-20 20:56N 17°09' W 061°52'0 0.0
2017-Jun-20 20:29N 17°09' W 061°52'0 0.0
2017-Jun-20 19:56N 17°09' W 061°52'0 0.0
2017-Jun-20 19:29N 17°09' W 061°52'0 0.0
2017-Jun-20 18:59N 17°09' W 061°52'0 0.0
2017-Jun-20 18:28N 17°09' W 061°52'0 0.0
2017-Jun-20 17:58N 17°09' W 061°52'0 0.0
2017-Jun-20 17:28N 17°09' W 061°52'0 0.0
2017-Jun-20 16:58N 17°09' W 061°52'0 0.0
2017-Jun-20 16:28N 17°09' W 061°52'0 0.0
2017-Jun-20 15:58N 17°09' W 061°52'0 0.0
2017-Jun-20 15:28N 17°09' W 061°52'0 0.0
2017-Jun-20 14:58N 17°09' W 061°52'0 0.0
2017-Jun-20 13:58N 17°09' W 061°52'0 0.0
2017-Jun-20 13:28N 17°09' W 061°52'0 0.0
2017-Jun-20 12:58N 17°09' W 061°52'0 0.0
2017-Jun-20 12:28N 17°09' W 061°52'0 0.0
2017-Jun-20 11:58N 17°09' W 061°52'0 0.0
2017-Jun-20 11:28N 17°09' W 061°52'0 0.0
2017-Jun-20 10:58N 17°09' W 061°52'0 0.0
2017-Jun-20 10:28N 17°09' W 061°52'0 0.0
2017-Jun-20 09:58N 17°09' W 061°52'0 0.0
2017-Jun-20 09:28N 17°09' W 061°52'0 0.0
2017-Jun-20 08:58N 17°09' W 061°52'0 0.0
2017-Jun-20 08:28N 17°09' W 061°52'0 0.0
2017-Jun-20 07:58N 17°09' W 061°52'0 0.0
2017-Jun-20 07:28N 17°09' W 061°52'0 0.0
2017-Jun-20 06:58N 17°09' W 061°52'0 0.0
2017-Jun-20 06:28N 17°09' W 061°52'0 0.0
2017-Jun-20 05:58N 17°09' W 061°52'0 0.0
2017-Jun-20 05:28N 17°09' W 061°52'0 0.0
2017-Jun-20 04:58N 17°09' W 061°52'0 0.0
2017-Jun-20 04:28N 17°09' W 061°52'0 0.0
2017-Jun-20 03:58N 17°09' W 061°52'0 0.0
2017-Jun-20 03:28N 17°09' W 061°52'0 0.0
2017-Jun-20 02:58N 17°09' W 061°52'0 0.0
2017-Jun-20 02:28N 17°09' W 061°52'0 0.0
2017-Jun-20 01:58N 17°09' W 061°52'0 0.0
2017-Jun-20 01:28N 17°09' W 061°52'0 0.0
2017-Jun-20 00:58N 17°09' W 061°52'0 0.0
2017-Jun-20 00:28N 17°09' W 061°52'0 0.0
2017-Jun-19 23:58N 17°09' W 061°52'0 0.0
2017-Jun-19 23:28N 17°09' W 061°52'0 0.0
2017-Jun-19 22:58N 17°09' W 061°52'0 0.0
2017-Jun-19 22:28N 17°09' W 061°52'0 0.0
2017-Jun-19 21:58N 17°09' W 061°52'0 0.0
2017-Jun-19 21:28N 17°09' W 061°52'0 0.0
2017-Jun-19 20:58N 17°09' W 061°52'0 0.0
2017-Jun-19 20:28N 17°09' W 061°52'0 0.0
2017-Jun-19 19:58N 17°09' W 061°52'0 0.0
2017-Jun-19 19:28N 17°09' W 061°52'0 0.0
2017-Jun-19 18:58N 17°09' W 061°52'0 0.0
2017-Jun-19 18:30N 17°09' W 061°52'0 0.0
2017-Jun-19 18:00N 17°09' W 061°52'0 0.0
2017-Jun-19 17:30N 17°09' W 061°52'0 0.0
2017-Jun-19 17:00N 17°09' W 061°52'0 0.0
2017-Jun-19 16:30N 17°09' W 061°52'0 0.0
2017-Jun-19 16:00N 17°09' W 061°52'0 0.1
2017-Jun-19 15:30N 17°09' W 061°52'1 1.4
2017-Jun-19 15:00N 17°10' W 061°53'0 0.1
2017-Jun-19 13:59N 17°10' W 061°53'0 0.0
2017-Jun-19 13:29N 17°10' W 061°53'0 0.0
2017-Jun-19 12:59N 17°10' W 061°53'0 0.0
2017-Jun-19 12:29N 17°10' W 061°53'0 0.0
2017-Jun-19 11:59N 17°10' W 061°53'0 0.1
2017-Jun-19 11:29N 17°10' W 061°53'0 0.0
2017-Jun-19 10:59N 17°10' W 061°53'0 0.0
2017-Jun-19 10:29N 17°10' W 061°53'0 0.0
2017-Jun-19 09:59N 17°10' W 061°53'0 0.0
2017-Jun-19 09:29N 17°10' W 061°53'0 0.0
2017-Jun-19 08:59N 17°10' W 061°53'0 0.0
2017-Jun-19 08:29N 17°10' W 061°53'0 0.0
2017-Jun-19 07:59N 17°10' W 061°53'0 0.0
2017-Jun-19 07:29N 17°10' W 061°53'0 0.1
2017-Jun-19 06:59N 17°10' W 061°53'0 0.1
2017-Jun-19 06:29N 17°10' W 061°53'0 0.1
2017-Jun-19 05:59N 17°10' W 061°53'0 0.1
2017-Jun-19 05:29N 17°10' W 061°53'0 0.0
2017-Jun-19 04:59N 17°10' W 061°53'0 0.0
2017-Jun-19 04:29N 17°10' W 061°53'0 0.0
2017-Jun-19 03:59N 17°10' W 061°53'0 0.0
2017-Jun-19 03:29N 17°10' W 061°53'0 0.0
2017-Jun-19 02:59N 17°10' W 061°53'0 0.0
2017-Jun-19 02:29N 17°10' W 061°53'0 0.0
2017-Jun-19 01:59N 17°10' W 061°53'0 0.0
2017-Jun-19 01:29N 17°10' W 061°53'0 0.0
2017-Jun-19 00:58N 17°10' W 061°53'0 0.0
2017-Jun-19 00:28N 17°10' W 061°53'0 0.0
2017-Jun-18 23:58N 17°10' W 061°53'0 0.0
2017-Jun-18 23:28N 17°10' W 061°53'0 0.0
2017-Jun-18 22:58N 17°10' W 061°53'0 0.0
2017-Jun-18 22:28N 17°10' W 061°53'0 0.0
2017-Jun-18 21:58N 17°10' W 061°53'0 0.0
2017-Jun-18 21:28N 17°10' W 061°53'0 0.0
2017-Jun-18 20:58N 17°10' W 061°53'0 0.0
2017-Jun-18 20:28N 17°10' W 061°53'0 0.0
2017-Jun-18 19:58N 17°10' W 061°53'0 0.0
2017-Jun-18 19:28N 17°10' W 061°53'0 0.0
2017-Jun-18 18:58N 17°10' W 061°53'0 0.0
2017-Jun-18 18:28N 17°10' W 061°53'0 0.0
2017-Jun-18 17:58N 17°10' W 061°53'0 0.0
2017-Jun-18 17:28N 17°10' W 061°53'0 0.1
2017-Jun-18 16:58N 17°10' W 061°53'0 0.0
2017-Jun-18 16:28N 17°10' W 061°53'0 0.0
2017-Jun-18 15:58N 17°10' W 061°53'0 0.0
2017-Jun-18 15:28N 17°10' W 061°53'0 0.0
2017-Jun-18 14:58N 17°10' W 061°53'0 0.0
2017-Jun-18 13:58N 17°10' W 061°53'0 0.1
2017-Jun-18 13:28N 17°10' W 061°53'3 5.5
2017-Jun-18 13:00N 17°09' W 061°55'5 9.7
2017-Jun-18 12:30N 17°05' W 061°58'611.5
2017-Jun-18 12:00N 16°59' W 061°58'611.1
2017-Jun-18 11:31N 16°54' W 061°58'611.1
2017-Jun-18 11:01N 16°48' W 061°58'611.0
2017-Jun-18 10:31N 16°43' W 061°58'510.5
2017-Jun-18 10:00N 16°37' W 061°59'510.4
2017-Jun-18 09:30N 16°32' W 061°59'510.5
2017-Jun-18 09:00N 16°27' W 061°59'510.4
2017-Jun-18 08:31N 16°22' W 061°59'510.2
2017-Jun-18 08:01N 16°17' W 061°60'610.0
2017-Jun-18 07:27N 16°11' W 061°60'2810.2
2017-Jun-18 04:43N 15°46' W 061°48'211.1
2017-Jun-18 04:29N 15°44' W 061°46'611.8
2017-Jun-18 04:00N 15°39' W 061°42'611.9
2017-Jun-18 03:30N 15°35' W 061°38'611.8
2017-Jun-18 03:00N 15°30' W 061°34'  

Dump ship's entire track history